sensor_id;sensor_type;location;lat;lon;timestamp;pressure;altitude;pressure_sealevel;temperature;humidity
19845;BME280;10083;51.038;7.012;2023-06-14T00:00:15;102737.06;;;19.53;100.00
19845;BME280;10083;51.038;7.012;2023-06-14T00:02:42;102772.88;;;19.35;100.00
19845;BME280;10083;51.038;7.012;2023-06-14T00:05:09;102753.50;;;19.49;100.00
19845;BME280;10083;51.038;7.012;2023-06-14T00:07:39;102736.16;;;19.53;100.00
19845;BME280;10083;51.038;7.012;2023-06-14T00:10:21;102714.63;;;19.45;100.00
19845;BME280;10083;51.038;7.012;2023-06-14T00:12:48;102731.69;;;19.50;100.00
19845;BME280;10083;51.038;7.012;2023-06-14T00:15:16;102750.00;;;19.42;100.00
19845;BME280;10083;51.038;7.012;2023-06-14T00:17:42;102792.34;;;19.18;100.00
19845;BME280;10083;51.038;7.012;2023-06-14T00:20:13;102817.09;;;19.06;100.00
19845;BME280;10083;51.038;7.012;2023-06-14T00:22:40;102815.38;;;19.02;100.00
19845;BME280;10083;51.038;7.012;2023-06-14T00:25:07;102836.53;;;18.89;100.00
19845;BME280;10083;51.038;7.012;2023-06-14T00:27:35;102831.19;;;18.86;100.00
19845;BME280;10083;51.038;7.012;2023-06-14T00:30:10;102807.19;;;19.05;100.00
19845;BME280;10083;51.038;7.012;2023-06-14T00:32:37;102791.78;;;19.06;100.00
19845;BME280;10083;51.038;7.012;2023-06-14T00:35:06;102766.09;;;19.17;100.00
19845;BME280;10083;51.038;7.012;2023-06-14T00:37:35;102775.41;;;19.07;100.00
19845;BME280;10083;51.038;7.012;2023-06-14T00:40:02;102763.47;;;19.14;100.00
19845;BME280;10083;51.038;7.012;2023-06-14T00:42:30;102797.34;;;19.01;100.00
19845;BME280;10083;51.038;7.012;2023-06-14T00:45:00;102806.16;;;19.09;100.00
19845;BME280;10083;51.038;7.012;2023-06-14T00:47:28;102849.31;;;18.84;100.00
19845;BME280;10083;51.038;7.012;2023-06-14T00:49:56;102863.06;;;18.78;100.00
19845;BME280;10083;51.038;7.012;2023-06-14T00:52:24;102893.34;;;18.59;100.00
19845;BME280;10083;51.038;7.012;2023-06-14T00:54:51;102935.75;;;18.21;100.00
19845;BME280;10083;51.038;7.012;2023-06-14T00:57:34;102929.59;;;18.12;100.00
19845;BME280;10083;51.038;7.012;2023-06-14T01:00:05;102926.13;;;18.05;100.00
19845;BME280;10083;51.038;7.012;2023-06-14T01:02:35;102928.88;;;18.02;100.00
19845;BME280;10083;51.038;7.012;2023-06-14T01:05:03;102922.44;;;18.09;100.00
19845;BME280;10083;51.038;7.012;2023-06-14T01:07:37;102933.63;;;17.92;100.00
19845;BME280;10083;51.038;7.012;2023-06-14T01:10:20;102908.97;;;18.04;100.00
19845;BME280;10083;51.038;7.012;2023-06-14T01:13:07;102917.44;;;17.86;100.00
19845;BME280;10083;51.038;7.012;2023-06-14T01:15:39;102930.03;;;17.90;100.00
19845;BME280;10083;51.038;7.012;2023-06-14T01:18:08;102923.94;;;17.79;100.00
19845;BME280;10083;51.038;7.012;2023-06-14T01:20:46;102899.69;;;18.15;100.00
19845;BME280;10083;51.038;7.012;2023-06-14T01:23:16;102901.56;;;18.13;100.00
19845;BME280;10083;51.038;7.012;2023-06-14T01:25:43;102847.56;;;18.42;100.00
19845;BME280;10083;51.038;7.012;2023-06-14T01:28:12;102904.13;;;18.19;100.00
19845;BME280;10083;51.038;7.012;2023-06-14T01:30:41;102876.53;;;18.41;100.00
19845;BME280;10083;51.038;7.012;2023-06-14T01:33:12;102895.13;;;18.18;100.00
19845;BME280;10083;51.038;7.012;2023-06-14T01:35:41;102919.09;;;17.95;100.00
19845;BME280;10083;51.038;7.012;2023-06-14T01:38:12;102923.94;;;17.79;100.00
19845;BME280;10083;51.038;7.012;2023-06-14T01:40:42;102907.50;;;17.87;100.00
19845;BME280;10083;51.038;7.012;2023-06-14T01:43:11;102914.94;;;17.76;100.00
19845;BME280;10083;51.038;7.012;2023-06-14T01:45:40;102919.34;;;17.83;100.00
19845;BME280;10083;51.038;7.012;2023-06-14T01:48:07;102914.91;;;17.77;100.00
19845;BME280;10083;51.038;7.012;2023-06-14T01:50:35;102928.66;;;17.67;100.00
19845;BME280;10083;51.038;7.012;2023-06-14T01:53:03;102933.19;;;17.66;100.00
19845;BME280;10083;51.038;7.012;2023-06-14T01:55:31;102922.06;;;17.80;100.00
19845;BME280;10083;51.038;7.012;2023-06-14T01:58:07;102934.41;;;17.45;100.00
19845;BME280;10083;51.038;7.012;2023-06-14T02:00:35;102938.28;;;17.31;100.00
19845;BME280;10083;51.038;7.012;2023-06-14T02:03:02;102939.34;;;17.21;100.00
19845;BME280;10083;51.038;7.012;2023-06-14T02:05:30;102943.16;;;17.07;100.00
19845;BME280;10083;51.038;7.012;2023-06-14T02:07:58;102931.22;;;17.21;100.00
19845;BME280;10083;51.038;7.012;2023-06-14T02:10:46;102935.69;;;17.23;100.00
19845;BME280;10083;51.038;7.012;2023-06-14T02:13:15;102932.03;;;17.26;100.00
19845;BME280;10083;51.038;7.012;2023-06-14T02:15:42;102944.97;;;17.08;100.00
19845;BME280;10083;51.038;7.012;2023-06-14T02:18:11;102938.72;;;17.02;100.00
19845;BME280;10083;51.038;7.012;2023-06-14T02:20:38;102943.28;;;16.98;100.00
19845;BME280;10083;51.038;7.012;2023-06-14T02:23:05;102939.03;;;16.81;100.00
19845;BME280;10083;51.038;7.012;2023-06-14T02:25:33;102941.88;;;16.71;100.00
19845;BME280;10083;51.038;7.012;2023-06-14T02:28:00;102944.69;;;16.62;100.00
19845;BME280;10083;51.038;7.012;2023-06-14T02:30:32;102942.97;;;16.55;100.00
19845;BME280;10083;51.038;7.012;2023-06-14T02:33:00;102946.53;;;16.60;100.00
19845;BME280;10083;51.038;7.012;2023-06-14T02:35:40;102949.25;;;16.59;100.00
19845;BME280;10083;51.038;7.012;2023-06-14T02:38:07;102946.63;;;17.17;100.00
19845;BME280;10083;51.038;7.012;2023-06-14T02:40:34;102940.41;;;17.10;100.00
19845;BME280;10083;51.038;7.012;2023-06-14T02:43:01;102949.75;;;16.90;100.00
19845;BME280;10083;51.038;7.012;2023-06-14T02:45:28;102948.75;;;16.95;100.00
19845;BME280;10083;51.038;7.012;2023-06-14T02:47:57;102958.28;;;16.55;100.00
19845;BME280;10083;51.038;7.012;2023-06-14T02:50:30;102954.13;;;16.28;100.00
19845;BME280;10083;51.038;7.012;2023-06-14T02:52:57;102952.94;;;16.50;100.00
19845;BME280;10083;51.038;7.012;2023-06-14T02:55:25;102951.00;;;16.63;100.00
19845;BME280;10083;51.038;7.012;2023-06-14T02:57:53;102949.03;;;16.76;100.00
19845;BME280;10083;51.038;7.012;2023-06-14T03:00:20;102950.03;;;16.70;100.00
19845;BME280;10083;51.038;7.012;2023-06-14T03:02:49;102951.09;;;16.54;100.00
19845;BME280;10083;51.038;7.012;2023-06-14T03:05:18;102947.78;;;16.31;100.00
19845;BME280;10083;51.038;7.012;2023-06-14T03:07:48;102946.38;;;15.96;100.00
19845;BME280;10083;51.038;7.012;2023-06-14T03:10:18;102910.50;;;15.80;100.00
19845;BME280;10083;51.038;7.012;2023-06-14T03:12:49;102868.25;;;15.75;100.00
19845;BME280;10083;51.038;7.012;2023-06-14T03:15:20;102875.28;;;15.90;100.00
19845;BME280;10083;51.038;7.012;2023-06-14T03:17:49;102874.56;;;15.72;100.00
19845;BME280;10083;51.038;7.012;2023-06-14T03:20:18;102830.53;;;15.66;100.00
19845;BME280;10083;51.038;7.012;2023-06-14T03:22:46;102827.84;;;15.66;100.00
19845;BME280;10083;51.038;7.012;2023-06-14T03:25:14;102826.09;;;15.60;100.00
19845;BME280;10083;51.038;7.012;2023-06-14T03:27:43;102813.47;;;15.59;100.00
19845;BME280;10083;51.038;7.012;2023-06-14T03:30:11;102805.47;;;15.47;100.00
19845;BME280;10083;51.038;7.012;2023-06-14T03:32:39;102810.88;;;15.50;100.00
19845;BME280;10083;51.038;7.012;2023-06-14T03:35:08;102796.47;;;15.48;100.00
19845;BME280;10083;51.038;7.012;2023-06-14T03:37:44;102773.13;;;15.44;100.00
19845;BME280;10083;51.038;7.012;2023-06-14T03:40:13;102771.28;;;15.48;100.00
19845;BME280;10083;51.038;7.012;2023-06-14T03:42:42;102770.44;;;15.43;100.00
19845;BME280;10083;51.038;7.012;2023-06-14T03:45:10;102736.44;;;15.23;100.00
19845;BME280;10083;51.038;7.012;2023-06-14T03:47:38;102767.81;;;15.35;100.00
19845;BME280;10083;51.038;7.012;2023-06-14T03:50:06;102757.03;;;15.33;100.00
19845;BME280;10083;51.038;7.012;2023-06-14T03:52:34;102746.22;;;15.32;100.00
19845;BME280;10083;51.038;7.012;2023-06-14T03:55:05;102740.81;;;15.35;100.00
19845;BME280;10083;51.038;7.012;2023-06-14T03:57:35;102739.03;;;15.34;100.00
19845;BME280;10083;51.038;7.012;2023-06-14T04:00:06;102722.81;;;15.35;100.00
19845;BME280;10083;51.038;7.012;2023-06-14T04:02:40;102706.69;;;15.31;100.00
19845;BME280;10083;51.038;7.012;2023-06-14T04:05:11;102685.03;;;15.34;100.00
19845;BME280;10083;51.038;7.012;2023-06-14T04:07:43;102683.19;;;15.36;100.00
19845;BME280;10083;51.038;7.012;2023-06-14T04:10:13;102669.63;;;15.40;100.00
19845;BME280;10083;51.038;7.012;2023-06-14T04:12:40;102657.06;;;15.39;100.00
19845;BME280;10083;51.038;7.012;2023-06-14T04:15:09;102678.53;;;15.52;100.00
19845;BME280;10083;51.038;7.012;2023-06-14T04:17:37;102679.44;;;15.52;100.00
19845;BME280;10083;51.038;7.012;2023-06-14T04:20:06;102680.25;;;15.59;100.00
19845;BME280;10083;51.038;7.012;2023-06-14T04:22:35;102663.13;;;15.61;100.00
19845;BME280;10083;51.038;7.012;2023-06-14T04:25:04;102652.28;;;15.63;100.00
19845;BME280;10083;51.038;7.012;2023-06-14T04:27:34;102598.31;;;15.60;100.00
19845;BME280;10083;51.038;7.012;2023-06-14T04:30:04;102629.47;;;15.83;100.00
19845;BME280;10083;51.038;7.012;2023-06-14T04:32:40;102632.00;;;15.93;100.00
19845;BME280;10083;51.038;7.012;2023-06-14T04:35:12;102649.94;;;16.00;100.00
19845;BME280;10083;51.038;7.012;2023-06-14T04:37:42;102642.72;;;16.00;100.00
19845;BME280;10083;51.038;7.012;2023-06-14T04:40:12;102660.47;;;16.18;100.00
19845;BME280;10083;51.038;7.012;2023-06-14T04:42:41;102671.22;;;16.21;100.00
19845;BME280;10083;51.038;7.012;2023-06-14T04:45:14;102648.78;;;16.14;100.00
19845;BME280;10083;51.038;7.012;2023-06-14T04:47:43;102632.56;;;16.14;100.00
19845;BME280;10083;51.038;7.012;2023-06-14T04:50:10;102670.19;;;16.28;100.00
19845;BME280;10083;51.038;7.012;2023-06-14T04:52:39;102726.56;;;16.55;100.00
19845;BME280;10083;51.038;7.012;2023-06-14T04:55:08;102757.94;;;16.67;100.00
19845;BME280;10083;51.038;7.012;2023-06-14T04:57:36;102802.97;;;16.72;100.00
19845;BME280;10083;51.038;7.012;2023-06-14T05:00:07;102831.44;;;16.96;100.00
19845;BME280;10083;51.038;7.012;2023-06-14T05:03:03;102862.88;;;17.05;100.00
19845;BME280;10083;51.038;7.012;2023-06-14T05:05:31;102877.25;;;17.08;100.00
19845;BME280;10083;51.038;7.012;2023-06-14T05:08:00;102877.88;;;17.24;100.00
19845;BME280;10083;51.038;7.012;2023-06-14T05:10:27;102895.69;;;17.40;100.00
19845;BME280;10083;51.038;7.012;2023-06-14T05:12:54;102924.47;;;17.46;100.00
19845;BME280;10083;51.038;7.012;2023-06-14T05:15:23;102934.38;;;17.48;100.00
19845;BME280;10083;51.038;7.012;2023-06-14T05:17:51;102960.97;;;17.79;100.00
19845;BME280;10083;51.038;7.012;2023-06-14T05:20:20;102976.19;;;17.86;100.00
19845;BME280;10083;51.038;7.012;2023-06-14T05:22:50;102984.00;;;18.04;100.00
19845;BME280;10083;51.038;7.012;2023-06-14T05:25:18;102985.66;;;18.11;100.00
19845;BME280;10083;51.038;7.012;2023-06-14T05:27:46;102989.91;;;18.26;100.00
19845;BME280;10083;51.038;7.012;2023-06-14T05:30:13;102999.94;;;18.22;100.00
19845;BME280;10083;51.038;7.012;2023-06-14T05:32:42;102997.97;;;18.29;100.00
19845;BME280;10083;51.038;7.012;2023-06-14T05:35:09;102992.97;;;18.53;100.00
19845;BME280;10083;51.038;7.012;2023-06-14T05:37:37;102997.53;;;18.51;100.00
19845;BME280;10083;51.038;7.012;2023-06-14T05:40:05;102983.91;;;18.56;100.00
19845;BME280;10083;51.038;7.012;2023-06-14T05:42:34;102995.69;;;18.53;100.00
19845;BME280;10083;51.038;7.012;2023-06-14T05:45:01;102992.78;;;18.63;100.00
19845;BME280;10083;51.038;7.012;2023-06-14T05:47:28;102962.69;;;18.75;100.00
19845;BME280;10083;51.038;7.012;2023-06-14T05:50:01;102958.88;;;18.83;100.00
19845;BME280;10083;51.038;7.012;2023-06-14T05:52:28;102946.94;;;18.90;100.00
19845;BME280;10083;51.038;7.012;2023-06-14T05:54:57;102952.75;;;19.14;100.00
19845;BME280;10083;51.038;7.012;2023-06-14T05:57:24;102957.19;;;19.16;100.00
19845;BME280;10083;51.038;7.012;2023-06-14T05:59:52;102939.09;;;19.15;100.00
19845;BME280;10083;51.038;7.012;2023-06-14T06:02:19;102942.25;;;19.35;100.00
19845;BME280;10083;51.038;7.012;2023-06-14T06:04:46;102960.91;;;19.51;100.00
19845;BME280;10083;51.038;7.012;2023-06-14T06:07:15;102921.91;;;19.53;100.00
19845;BME280;10083;51.038;7.012;2023-06-14T06:09:47;102920.75;;;19.62;100.00
19845;BME280;10083;51.038;7.012;2023-06-14T06:12:15;102921.63;;;19.62;100.00
19845;BME280;10083;51.038;7.012;2023-06-14T06:14:44;102902.75;;;19.90;100.00
19845;BME280;10083;51.038;7.012;2023-06-14T06:17:11;102922.25;;;20.06;100.00
19845;BME280;10083;51.038;7.012;2023-06-14T06:19:55;102879.81;;;20.00;100.00
19845;BME280;10083;51.038;7.012;2023-06-14T06:22:24;102893.06;;;20.12;100.00
19845;BME280;10083;51.038;7.012;2023-06-14T06:24:53;102878.53;;;20.13;100.00
19845;BME280;10083;51.038;7.012;2023-06-14T06:27:20;102876.16;;;20.32;100.00
19845;BME280;10083;51.038;7.012;2023-06-14T06:29:47;102857.94;;;20.36;100.00
19845;BME280;10083;51.038;7.012;2023-06-14T06:32:15;102866.66;;;20.47;100.00
19845;BME280;10083;51.038;7.012;2023-06-14T06:35:01;102856.22;;;20.61;100.00
19845;BME280;10083;51.038;7.012;2023-06-14T06:37:33;102845.78;;;20.75;100.00
19845;BME280;10083;51.038;7.012;2023-06-14T06:40:06;102827.25;;;20.86;100.00
19845;BME280;10083;51.038;7.012;2023-06-14T06:42:34;102832.09;;;21.04;100.00
19845;BME280;10083;51.038;7.012;2023-06-14T06:45:11;102810.97;;;21.11;100.00
19845;BME280;10083;51.038;7.012;2023-06-14T06:47:38;102791.00;;;21.10;100.00
19845;BME280;10083;51.038;7.012;2023-06-14T06:50:06;102779.81;;;21.19;100.00
19845;BME280;10083;51.038;7.012;2023-06-14T06:52:36;102784.47;;;21.41;100.00
19845;BME280;10083;51.038;7.012;2023-06-14T06:55:04;102780.16;;;21.35;100.00
19845;BME280;10083;51.038;7.012;2023-06-14T06:57:37;102730.97;;;21.38;100.00
19845;BME280;10083;51.038;7.012;2023-06-14T07:00:05;102724.16;;;21.50;100.00
19845;BME280;10083;51.038;7.012;2023-06-14T07:02:35;102703.78;;;21.60;100.00
19845;BME280;10083;51.038;7.012;2023-06-14T07:05:02;102706.38;;;21.63;100.00
19845;BME280;10083;51.038;7.012;2023-06-14T07:07:30;102772.09;;;22.05;100.00
19845;BME280;10083;51.038;7.012;2023-06-14T07:09:59;102707.50;;;22.05;100.00
19845;BME280;10083;51.038;7.012;2023-06-14T07:12:52;102722.09;;;22.04;100.00
19845;BME280;10083;51.038;7.012;2023-06-14T07:15:19;102702.53;;;22.15;100.00
19845;BME280;10083;51.038;7.012;2023-06-14T07:18:06;102680.09;;;22.30;100.00
19845;BME280;10083;51.038;7.012;2023-06-14T07:20:34;102622.94;;;22.26;100.00
19845;BME280;10083;51.038;7.012;2023-06-14T07:23:12;102608.41;;;22.25;100.00
19845;BME280;10083;51.038;7.012;2023-06-14T07:25:40;102569.84;;;22.33;100.00
19845;BME280;10083;51.038;7.012;2023-06-14T07:28:13;102556.47;;;22.47;100.00
19845;BME280;10083;51.038;7.012;2023-06-14T07:30:41;102496.41;;;22.47;100.00
19845;BME280;10083;51.038;7.012;2023-06-14T07:33:10;102481.63;;;22.51;100.00
19845;BME280;10083;51.038;7.012;2023-06-14T07:35:38;102435.06;;;22.74;100.00
19845;BME280;10083;51.038;7.012;2023-06-14T07:38:08;102445.31;;;23.07;100.00
19845;BME280;10083;51.038;7.012;2023-06-14T07:40:35;102405.44;;;23.03;100.00
19845;BME280;10083;51.038;7.012;2023-06-14T07:43:05;102401.69;;;23.05;100.00
19845;BME280;10083;51.038;7.012;2023-06-14T07:45:32;102367.56;;;22.95;100.00
19845;BME280;10083;51.038;7.012;2023-06-14T07:47:59;102382.88;;;23.16;100.00
19845;BME280;10083;51.038;7.012;2023-06-14T07:50:26;102337.56;;;22.93;100.00
19845;BME280;10083;51.038;7.012;2023-06-14T07:52:54;102354.38;;;23.22;100.00
19845;BME280;10083;51.038;7.012;2023-06-14T07:55:40;102306.56;;;23.48;100.00
19845;BME280;10083;51.038;7.012;2023-06-14T07:58:09;102246.22;;;23.51;100.00
19845;BME280;10083;51.038;7.012;2023-06-14T08:00:38;102217.31;;;23.28;100.00
19845;BME280;10083;51.038;7.012;2023-06-14T08:03:05;102239.38;;;23.59;100.00
19845;BME280;10083;51.038;7.012;2023-06-14T08:05:56;102226.91;;;23.71;100.00
19845;BME280;10083;51.038;7.012;2023-06-14T08:08:23;102220.75;;;23.99;100.00
19845;BME280;10083;51.038;7.012;2023-06-14T08:10:51;102199.22;;;23.93;100.00
19845;BME280;10083;51.038;7.012;2023-06-14T08:13:20;102181.97;;;23.91;100.00
19845;BME280;10083;51.038;7.012;2023-06-14T08:16:16;102135.13;;;23.97;100.00
19845;BME280;10083;51.038;7.012;2023-06-14T08:18:43;102135.09;;;24.12;100.00
19845;BME280;10083;51.038;7.012;2023-06-14T08:21:14;102093.31;;;23.93;100.00
19845;BME280;10083;51.038;7.012;2023-06-14T08:23:41;102123.53;;;23.92;100.00
19845;BME280;10083;51.038;7.012;2023-06-14T08:26:08;102144.06;;;24.16;100.00
19845;BME280;10083;51.038;7.012;2023-06-14T08:28:37;102193.25;;;24.17;100.00
19845;BME280;10083;51.038;7.012;2023-06-14T08:31:29;102193.25;;;24.33;100.00
19845;BME280;10083;51.038;7.012;2023-06-14T08:33:57;102207.13;;;24.61;100.00
19845;BME280;10083;51.038;7.012;2023-06-14T08:36:25;102166.09;;;24.60;100.00
19845;BME280;10083;51.038;7.012;2023-06-14T08:38:52;102112.09;;;24.32;100.00
19845;BME280;10083;51.038;7.012;2023-06-14T08:41:21;102137.06;;;24.26;100.00
19845;BME280;10083;51.038;7.012;2023-06-14T08:43:52;102119.19;;;24.50;100.00
19845;BME280;10083;51.038;7.012;2023-06-14T08:46:20;102141.25;;;24.63;100.00
19845;BME280;10083;51.038;7.012;2023-06-14T08:48:49;102175.28;;;24.59;100.00
19845;BME280;10083;51.038;7.012;2023-06-14T08:51:19;102160.84;;;24.87;100.00
19845;BME280;10083;51.038;7.012;2023-06-14T08:53:52;102139.66;;;24.74;100.00
19845;BME280;10083;51.038;7.012;2023-06-14T08:56:25;102189.94;;;24.89;100.00
19845;BME280;10083;51.038;7.012;2023-06-14T08:59:16;102110.78;;;25.13;100.00
19845;BME280;10083;51.038;7.012;2023-06-14T09:01:45;102162.34;;;25.06;100.00
19845;BME280;10083;51.038;7.012;2023-06-14T09:04:19;102214.03;;;24.98;100.00
19845;BME280;10083;51.038;7.012;2023-06-14T09:06:47;102184.47;;;25.19;100.00
19845;BME280;10083;51.038;7.012;2023-06-14T09:09:38;102156.44;;;25.14;100.00
19845;BME280;10083;51.038;7.012;2023-06-14T09:12:07;102152.03;;;25.26;100.00
19845;BME280;10083;51.038;7.012;2023-06-14T09:14:38;102171.69;;;25.62;100.00
19845;BME280;10083;51.038;7.012;2023-06-14T09:17:07;102202.59;;;25.50;100.00
19845;BME280;10083;51.038;7.012;2023-06-14T09:19:35;102200.13;;;25.17;100.00
19845;BME280;10083;51.038;7.012;2023-06-14T09:22:03;102175.38;;;25.47;100.00
19845;BME280;10083;51.038;7.012;2023-06-14T09:24:31;102177.66;;;25.97;100.00
19845;BME280;10083;51.038;7.012;2023-06-14T09:26:58;102180.00;;;26.31;100.00
19845;BME280;10083;51.038;7.012;2023-06-14T09:29:31;102203.03;;;26.29;100.00
19845;BME280;10083;51.038;7.012;2023-06-14T09:32:01;102142.06;;;25.95;100.00
19845;BME280;10083;51.038;7.012;2023-06-14T09:34:47;102197.44;;;26.30;100.00
19845;BME280;10083;51.038;7.012;2023-06-14T09:37:32;102146.88;;;26.33;100.00
19845;BME280;10083;51.038;7.012;2023-06-14T09:40:00;102186.66;;;26.13;100.00
19845;BME280;10083;51.038;7.012;2023-06-14T09:42:28;102150.69;;;25.89;100.00
19845;BME280;10083;51.038;7.012;2023-06-14T09:44:56;102175.88;;;26.24;100.00
19845;BME280;10083;51.038;7.012;2023-06-14T09:47:25;102096.63;;;26.45;100.00
19845;BME280;10083;51.038;7.012;2023-06-14T09:49:52;102178.38;;;26.68;100.00
19845;BME280;10083;51.038;7.012;2023-06-14T09:52:21;102183.25;;;26.50;100.00
19845;BME280;10083;51.038;7.012;2023-06-14T09:54:48;102131.84;;;26.65;100.00
19845;BME280;10083;51.038;7.012;2023-06-14T09:57:17;102140.44;;;27.13;100.00
19845;BME280;10083;51.038;7.012;2023-06-14T09:59:48;102101.63;;;26.65;100.00
19845;BME280;10083;51.038;7.012;2023-06-14T10:02:22;102143.75;;;27.05;100.00
19845;BME280;10083;51.038;7.012;2023-06-14T10:05:51;102146.47;;;27.94;100.00
19845;BME280;10083;51.038;7.012;2023-06-14T10:08:20;102124.19;;;27.48;100.00
19845;BME280;10083;51.038;7.012;2023-06-14T10:10:51;102145.41;;;27.83;100.00
19845;BME280;10083;51.038;7.012;2023-06-14T10:13:18;102152.53;;;27.99;100.00
19845;BME280;10083;51.038;7.012;2023-06-14T10:16:07;102099.59;;;27.82;100.00
19845;BME280;10083;51.038;7.012;2023-06-14T10:18:42;102066.44;;;28.08;100.00
19845;BME280;10083;51.038;7.012;2023-06-14T10:21:21;102092.75;;;27.88;100.00
19845;BME280;10083;51.038;7.012;2023-06-14T10:23:50;102088.84;;;28.51;100.00
19845;BME280;10083;51.038;7.012;2023-06-14T10:26:23;102025.38;;;29.43;100.00
19845;BME280;10083;51.038;7.012;2023-06-14T10:29:00;102006.22;;;28.73;100.00
19845;BME280;10083;51.038;7.012;2023-06-14T10:31:41;102005.34;;;28.72;100.00
19845;BME280;10083;51.038;7.012;2023-06-14T10:34:09;101988.97;;;29.27;100.00
19845;BME280;10083;51.038;7.012;2023-06-14T10:36:41;102108.34;;;29.52;100.00
19845;BME280;10083;51.038;7.012;2023-06-14T10:39:16;102019.59;;;29.24;100.00
19845;BME280;10083;51.038;7.012;2023-06-14T10:41:54;101999.06;;;29.82;100.00
19845;BME280;10083;51.038;7.012;2023-06-14T10:44:49;101936.69;;;29.68;100.00
19845;BME280;10083;51.038;7.012;2023-06-14T10:47:23;101764.56;;;31.38;100.00
19845;BME280;10083;51.038;7.012;2023-06-14T10:49:54;101669.34;;;32.15;100.00
19845;BME280;10083;51.038;7.012;2023-06-14T10:52:24;101791.59;;;30.57;100.00
19845;BME280;10083;51.038;7.012;2023-06-14T10:55:04;101780.59;;;29.74;100.00
19845;BME280;10083;51.038;7.012;2023-06-14T10:57:32;101806.00;;;29.67;100.00
19845;BME280;10083;51.038;7.012;2023-06-14T10:59:59;101840.09;;;29.78;100.00
19845;BME280;10083;51.038;7.012;2023-06-14T11:05:51;101775.63;;;30.39;100.00
19845;BME280;10083;51.038;7.012;2023-06-14T11:11:33;101748.09;;;31.27;100.00
19845;BME280;10083;51.038;7.012;2023-06-14T11:14:00;101652.25;;;32.19;100.00
19845;BME280;10083;51.038;7.012;2023-06-14T11:16:28;101720.97;;;31.69;100.00
19845;BME280;10083;51.038;7.012;2023-06-14T11:18:55;101831.47;;;31.53;100.00
19845;BME280;10083;51.038;7.012;2023-06-14T11:21:24;101788.03;;;31.73;100.00
19845;BME280;10083;51.038;7.012;2023-06-14T11:23:56;101798.53;;;30.81;100.00
19845;BME280;10083;51.038;7.012;2023-06-14T11:26:27;101691.38;;;33.42;100.00
19845;BME280;10083;51.038;7.012;2023-06-14T11:28:57;101751.31;;;33.09;100.00
19845;BME280;10083;51.038;7.012;2023-06-14T11:31:25;101614.75;;;33.31;100.00
19845;BME280;10083;51.038;7.012;2023-06-14T11:33:54;101675.91;;;31.67;100.00
19845;BME280;10083;51.038;7.012;2023-06-14T11:36:23;101765.78;;;32.21;100.00
19845;BME280;10083;51.038;7.012;2023-06-14T11:38:58;101544.72;;;33.02;100.00
19845;BME280;10083;51.038;7.012;2023-06-14T11:41:26;101680.31;;;31.41;100.00
19845;BME280;10083;51.038;7.012;2023-06-14T11:44:01;101705.06;;;31.71;100.00
19845;BME280;10083;51.038;7.012;2023-06-14T11:46:29;101536.94;;;33.91;100.00
19845;BME280;10083;51.038;7.012;2023-06-14T11:48:56;101646.56;;;31.74;100.00
19845;BME280;10083;51.038;7.012;2023-06-14T11:51:23;101691.75;;;32.31;100.00
19845;BME280;10083;51.038;7.012;2023-06-14T11:53:50;101601.59;;;34.27;100.00
19845;BME280;10083;51.038;7.012;2023-06-14T11:56:19;101671.81;;;30.85;100.00
19845;BME280;10083;51.038;7.012;2023-06-14T11:58:46;101612.81;;;32.43;100.00
19845;BME280;10083;51.038;7.012;2023-06-14T12:01:16;101576.78;;;33.40;100.00
19845;BME280;10083;51.038;7.012;2023-06-14T12:03:47;101600.38;;;32.47;100.00
19845;BME280;10083;51.038;7.012;2023-06-14T12:06:16;101554.84;;;33.88;100.00
19845;BME280;10083;51.038;7.012;2023-06-14T12:08:55;101525.22;;;32.94;100.00
19845;BME280;10083;51.038;7.012;2023-06-14T12:11:23;101387.66;;;32.73;100.00
19845;BME280;10083;51.038;7.012;2023-06-14T12:13:50;101390.00;;;32.86;100.00
19845;BME280;10083;51.038;7.012;2023-06-14T12:16:19;101404.75;;;32.08;100.00
19845;BME280;10083;51.038;7.012;2023-06-14T12:18:47;101429.81;;;32.16;100.00
19845;BME280;10083;51.038;7.012;2023-06-14T12:21:36;101472.97;;;32.01;100.00
19845;BME280;10083;51.038;7.012;2023-06-14T12:24:04;101432.13;;;33.75;100.00
19845;BME280;10083;51.038;7.012;2023-06-14T12:26:38;101365.16;;;34.98;100.00
19845;BME280;10083;51.038;7.012;2023-06-14T12:29:07;101394.94;;;33.34;100.00
19845;BME280;10083;51.038;7.012;2023-06-14T12:31:38;101437.56;;;35.06;100.00
19845;BME280;10083;51.038;7.012;2023-06-14T12:34:07;101361.22;;;34.60;100.00
19845;BME280;10083;51.038;7.012;2023-06-14T12:36:53;101405.25;;;34.48;100.00
19845;BME280;10083;51.038;7.012;2023-06-14T12:39:20;101409.63;;;34.27;100.00
19845;BME280;10083;51.038;7.012;2023-06-14T12:41:48;101452.25;;;34.68;100.00
19845;BME280;10083;51.038;7.012;2023-06-14T12:44:17;101423.31;;;34.61;100.00
19845;BME280;10083;51.038;7.012;2023-06-14T12:46:46;101409.63;;;34.27;100.00
19845;BME280;10083;51.038;7.012;2023-06-14T12:49:21;101402.63;;;34.55;100.00
19845;BME280;10083;51.038;7.012;2023-06-14T12:51:48;101426.56;;;33.83;100.00
19845;BME280;10083;51.038;7.012;2023-06-14T12:54:15;101528.09;;;33.28;100.00
19845;BME280;10083;51.038;7.012;2023-06-14T12:56:43;101504.63;;;32.43;100.00
19845;BME280;10083;51.038;7.012;2023-06-14T12:59:10;101582.38;;;32.06;100.00
19845;BME280;10083;51.038;7.012;2023-06-14T13:01:41;101643.72;;;31.94;100.00
19845;BME280;10083;51.038;7.012;2023-06-14T13:04:11;101595.88;;;34.28;100.00